sensor_id;sensor_type;location;lat;lon;timestamp;temperature;humidity
15983;DHT22;14442;50.196;8.096;2022-08-11T00:00:19;17.60;59.10
15983;DHT22;14442;50.196;8.096;2022-08-11T00:02:49;17.40;59.00
15983;DHT22;14442;50.196;8.096;2022-08-11T00:05:20;17.40;58.90
15983;DHT22;14442;50.196;8.096;2022-08-11T00:07:49;17.40;59.00
15983;DHT22;14442;50.196;8.096;2022-08-11T00:10:18;17.40;58.90
15983;DHT22;14442;50.196;8.096;2022-08-11T00:12:50;17.30;59.20
15983;DHT22;14442;50.196;8.096;2022-08-11T00:15:17;17.30;59.10
15983;DHT22;14442;50.196;8.096;2022-08-11T00:17:45;17.20;59.30
15983;DHT22;14442;50.196;8.096;2022-08-11T00:20:13;17.10;59.30
15983;DHT22;14442;50.196;8.096;2022-08-11T00:22:44;17.10;59.40
15983;DHT22;14442;50.196;8.096;2022-08-11T00:25:14;17.00;59.50
15983;DHT22;14442;50.196;8.096;2022-08-11T00:27:41;17.00;59.70
15983;DHT22;14442;50.196;8.096;2022-08-11T00:30:10;17.00;60.00
15983;DHT22;14442;50.196;8.096;2022-08-11T00:32:41;16.90;59.80
15983;DHT22;14442;50.196;8.096;2022-08-11T00:35:12;16.90;59.80
15983;DHT22;14442;50.196;8.096;2022-08-11T00:37:46;16.90;59.80
15983;DHT22;14442;50.196;8.096;2022-08-11T00:40:22;16.90;59.80
15983;DHT22;14442;50.196;8.096;2022-08-11T00:42:59;16.90;59.60
15983;DHT22;14442;50.196;8.096;2022-08-11T00:45:33;16.90;59.50
15983;DHT22;14442;50.196;8.096;2022-08-11T00:48:06;16.90;59.30
15983;DHT22;14442;50.196;8.096;2022-08-11T00:50:44;16.90;59.60
15983;DHT22;14442;50.196;8.096;2022-08-11T00:53:35;16.80;59.50
15983;DHT22;14442;50.196;8.096;2022-08-11T00:56:38;16.70;59.60
15983;DHT22;14442;50.196;8.096;2022-08-11T00:59:38;16.70;59.70
15983;DHT22;14442;50.196;8.096;2022-08-11T01:02:16;16.60;59.90
15983;DHT22;14442;50.196;8.096;2022-08-11T01:05:09;16.60;60.50
15983;DHT22;14442;50.196;8.096;2022-08-11T01:08:03;16.50;60.30
15983;DHT22;14442;50.196;8.096;2022-08-11T01:11:01;16.50;60.10
15983;DHT22;14442;50.196;8.096;2022-08-11T01:14:08;16.50;60.00
15983;DHT22;14442;50.196;8.096;2022-08-11T01:20:03;16.40;60.30
15983;DHT22;14442;50.196;8.096;2022-08-11T01:23:06;16.40;60.20
15983;DHT22;14442;50.196;8.096;2022-08-11T01:29:09;16.40;60.00
15983;DHT22;14442;50.196;8.096;2022-08-11T01:32:05;16.30;60.00
15983;DHT22;14442;50.196;8.096;2022-08-11T01:35:16;16.30;60.30
15983;DHT22;14442;50.196;8.096;2022-08-11T01:38:10;16.20;60.40
15983;DHT22;14442;50.196;8.096;2022-08-11T01:41:14;16.20;60.40
15983;DHT22;14442;50.196;8.096;2022-08-11T01:44:07;16.20;60.60
15983;DHT22;14442;50.196;8.096;2022-08-11T01:47:05;16.20;60.60
15983;DHT22;14442;50.196;8.096;2022-08-11T01:50:04;16.00;60.70
15983;DHT22;14442;50.196;8.096;2022-08-11T01:52:39;16.00;60.80
15983;DHT22;14442;50.196;8.096;2022-08-11T01:55:13;16.00;60.80
15983;DHT22;14442;50.196;8.096;2022-08-11T01:57:46;16.00;60.70
15983;DHT22;14442;50.196;8.096;2022-08-11T02:00:18;16.00;60.60
15983;DHT22;14442;50.196;8.096;2022-08-11T02:02:52;16.00;60.40
15983;DHT22;14442;50.196;8.096;2022-08-11T02:05:44;15.90;60.70
15983;DHT22;14442;50.196;8.096;2022-08-11T02:08:20;15.90;60.70
15983;DHT22;14442;50.196;8.096;2022-08-11T02:10:55;15.80;60.70
15983;DHT22;14442;50.196;8.096;2022-08-11T02:13:48;15.80;60.70
15983;DHT22;14442;50.196;8.096;2022-08-11T02:16:20;15.70;60.70
15983;DHT22;14442;50.196;8.096;2022-08-11T02:18:54;15.70;60.60
15983;DHT22;14442;50.196;8.096;2022-08-11T02:21:59;15.70;60.70
15983;DHT22;14442;50.196;8.096;2022-08-11T02:24:46;15.70;60.80
15983;DHT22;14442;50.196;8.096;2022-08-11T02:27:19;15.60;61.10
15983;DHT22;14442;50.196;8.096;2022-08-11T02:29:52;15.60;61.10
15983;DHT22;14442;50.196;8.096;2022-08-11T02:32:24;15.60;61.20
15983;DHT22;14442;50.196;8.096;2022-08-11T02:35:18;15.60;61.20
15983;DHT22;14442;50.196;8.096;2022-08-11T02:37:51;15.60;61.40
15983;DHT22;14442;50.196;8.096;2022-08-11T02:40:28;15.60;61.30
15983;DHT22;14442;50.196;8.096;2022-08-11T02:43:07;15.50;61.10
15983;DHT22;14442;50.196;8.096;2022-08-11T02:45:41;15.50;61.20
15983;DHT22;14442;50.196;8.096;2022-08-11T02:48:24;15.50;61.20
15983;DHT22;14442;50.196;8.096;2022-08-11T02:51:19;15.40;61.30
15983;DHT22;14442;50.196;8.096;2022-08-11T02:53:58;15.30;61.30
15983;DHT22;14442;50.196;8.096;2022-08-11T02:56:39;15.40;61.30
15983;DHT22;14442;50.196;8.096;2022-08-11T02:59:16;15.40;61.40
15983;DHT22;14442;50.196;8.096;2022-08-11T03:02:14;15.30;61.50
15983;DHT22;14442;50.196;8.096;2022-08-11T03:04:54;15.30;61.50
15983;DHT22;14442;50.196;8.096;2022-08-11T03:07:28;15.30;61.50
15983;DHT22;14442;50.196;8.096;2022-08-11T03:10:04;15.20;61.50
15983;DHT22;14442;50.196;8.096;2022-08-11T03:12:40;15.10;61.70
15983;DHT22;14442;50.196;8.096;2022-08-11T03:15:29;15.20;61.60
15983;DHT22;14442;50.196;8.096;2022-08-11T03:18:20;15.20;61.60
15983;DHT22;14442;50.196;8.096;2022-08-11T03:21:00;15.20;61.60
15983;DHT22;14442;50.196;8.096;2022-08-11T03:23:32;15.20;61.60
15983;DHT22;14442;50.196;8.096;2022-08-11T03:26:05;15.10;61.50
15983;DHT22;14442;50.196;8.096;2022-08-11T03:28:41;15.10;61.60
15983;DHT22;14442;50.196;8.096;2022-08-11T03:31:19;15.00;61.80
15983;DHT22;14442;50.196;8.096;2022-08-11T03:33:51;15.00;61.90
15983;DHT22;14442;50.196;8.096;2022-08-11T03:37:04;15.00;61.70
15983;DHT22;14442;50.196;8.096;2022-08-11T03:39:41;15.00;61.70
15983;DHT22;14442;50.196;8.096;2022-08-11T03:42:17;15.00;61.80
15983;DHT22;14442;50.196;8.096;2022-08-11T03:45:02;14.90;61.70
15983;DHT22;14442;50.196;8.096;2022-08-11T03:47:54;14.80;61.90
15983;DHT22;14442;50.196;8.096;2022-08-11T03:50:32;14.80;62.10
15983;DHT22;14442;50.196;8.096;2022-08-11T03:53:08;14.80;62.00
15983;DHT22;14442;50.196;8.096;2022-08-11T03:55:57;14.80;62.00
15983;DHT22;14442;50.196;8.096;2022-08-11T03:58:57;14.80;62.00
15983;DHT22;14442;50.196;8.096;2022-08-11T04:01:54;14.80;62.10
15983;DHT22;14442;50.196;8.096;2022-08-11T04:11:10;14.70;62.00
15983;DHT22;14442;50.196;8.096;2022-08-11T04:14:16;14.70;62.20
15983;DHT22;14442;50.196;8.096;2022-08-11T04:17:32;14.70;62.00
15983;DHT22;14442;50.196;8.096;2022-08-11T04:20:22;14.70;62.10
15983;DHT22;14442;50.196;8.096;2022-08-11T04:23:23;14.60;62.30
15983;DHT22;14442;50.196;8.096;2022-08-11T04:26:15;14.60;62.40
15983;DHT22;14442;50.196;8.096;2022-08-11T04:29:05;14.60;62.30
15983;DHT22;14442;50.196;8.096;2022-08-11T04:31:39;14.50;63.20
15983;DHT22;14442;50.196;8.096;2022-08-11T04:34:43;14.70;62.00
15983;DHT22;14442;50.196;8.096;2022-08-11T04:40:45;15.30;60.80
15983;DHT22;14442;50.196;8.096;2022-08-11T04:43:38;15.50;60.30
15983;DHT22;14442;50.196;8.096;2022-08-11T04:46:41;15.60;60.00
15983;DHT22;14442;50.196;8.096;2022-08-11T04:53:01;15.70;59.60
15983;DHT22;14442;50.196;8.096;2022-08-11T04:56:10;15.80;59.60
15983;DHT22;14442;50.196;8.096;2022-08-11T04:59:29;15.70;59.50
15983;DHT22;14442;50.196;8.096;2022-08-11T05:02:49;15.50;60.70
15983;DHT22;14442;50.196;8.096;2022-08-11T05:05:39;15.60;59.90
15983;DHT22;14442;50.196;8.096;2022-08-11T05:08:50;15.80;59.50
15983;DHT22;14442;50.196;8.096;2022-08-11T05:11:34;15.90;59.60
15983;DHT22;14442;50.196;8.096;2022-08-11T05:14:35;16.00;59.50
15983;DHT22;14442;50.196;8.096;2022-08-11T05:17:43;16.00;59.30
15983;DHT22;14442;50.196;8.096;2022-08-11T05:20:29;16.10;59.30
15983;DHT22;14442;50.196;8.096;2022-08-11T05:23:15;16.10;59.20
15983;DHT22;14442;50.196;8.096;2022-08-11T05:26:02;16.10;59.50
15983;DHT22;14442;50.196;8.096;2022-08-11T05:28:52;16.10;60.10
15983;DHT22;14442;50.196;8.096;2022-08-11T05:31:39;16.10;59.80
15983;DHT22;14442;50.196;8.096;2022-08-11T05:34:25;16.10;59.70
15983;DHT22;14442;50.196;8.096;2022-08-11T05:37:13;16.10;59.60
15983;DHT22;14442;50.196;8.096;2022-08-11T05:39:44;16.10;60.10
15983;DHT22;14442;50.196;8.096;2022-08-11T05:42:33;16.30;60.60
15983;DHT22;14442;50.196;8.096;2022-08-11T05:45:19;16.50;60.50
15983;DHT22;14442;50.196;8.096;2022-08-11T05:48:04;16.60;60.30
15983;DHT22;14442;50.196;8.096;2022-08-11T05:50:56;16.60;60.00
15983;DHT22;14442;50.196;8.096;2022-08-11T05:53:49;16.60;61.00
15983;DHT22;14442;50.196;8.096;2022-08-11T05:56:46;16.80;60.90
15983;DHT22;14442;50.196;8.096;2022-08-11T05:59:17;16.90;60.80
15983;DHT22;14442;50.196;8.096;2022-08-11T06:01:45;17.00;60.90
15983;DHT22;14442;50.196;8.096;2022-08-11T06:04:18;17.00;60.80
15983;DHT22;14442;50.196;8.096;2022-08-11T06:06:51;17.10;60.80
15983;DHT22;14442;50.196;8.096;2022-08-11T06:09:31;17.10;60.80
15983;DHT22;14442;50.196;8.096;2022-08-11T06:12:02;17.20;60.80
15983;DHT22;14442;50.196;8.096;2022-08-11T06:14:30;17.20;60.80
15983;DHT22;14442;50.196;8.096;2022-08-11T06:17:00;17.20;60.70
15983;DHT22;14442;50.196;8.096;2022-08-11T06:19:33;17.30;60.80
15983;DHT22;14442;50.196;8.096;2022-08-11T06:22:02;17.30;60.60
15983;DHT22;14442;50.196;8.096;2022-08-11T06:24:32;17.40;60.50
15983;DHT22;14442;50.196;8.096;2022-08-11T06:27:00;17.40;60.30
15983;DHT22;14442;50.196;8.096;2022-08-11T06:29:31;17.40;60.20
15983;DHT22;14442;50.196;8.096;2022-08-11T06:32:01;17.50;60.20
15983;DHT22;14442;50.196;8.096;2022-08-11T06:34:51;17.50;60.20
15983;DHT22;14442;50.196;8.096;2022-08-11T06:37:23;17.50;60.30
15983;DHT22;14442;50.196;8.096;2022-08-11T06:40:03;17.60;60.40
15983;DHT22;14442;50.196;8.096;2022-08-11T06:42:37;17.60;60.40
15983;DHT22;14442;50.196;8.096;2022-08-11T06:45:14;17.60;60.40
15983;DHT22;14442;50.196;8.096;2022-08-11T06:47:44;17.60;60.30
15983;DHT22;14442;50.196;8.096;2022-08-11T06:50:16;17.70;60.30
15983;DHT22;14442;50.196;8.096;2022-08-11T06:53:03;17.70;60.20
15983;DHT22;14442;50.196;8.096;2022-08-11T06:55:34;17.70;60.20
15983;DHT22;14442;50.196;8.096;2022-08-11T06:58:20;17.70;60.10
15983;DHT22;14442;50.196;8.096;2022-08-11T07:01:08;17.70;60.10
15983;DHT22;14442;50.196;8.096;2022-08-11T07:03:42;17.70;60.10
15983;DHT22;14442;50.196;8.096;2022-08-11T07:06:21;17.80;60.10
15983;DHT22;14442;50.196;8.096;2022-08-11T07:09:18;17.80;60.10
15983;DHT22;14442;50.196;8.096;2022-08-11T07:12:33;17.80;60.00
15983;DHT22;14442;50.196;8.096;2022-08-11T07:15:23;17.90;60.00
15983;DHT22;14442;50.196;8.096;2022-08-11T07:18:19;17.80;59.90
15983;DHT22;14442;50.196;8.096;2022-08-11T07:21:10;17.90;60.00
15983;DHT22;14442;50.196;8.096;2022-08-11T07:23:58;17.90;60.00
15983;DHT22;14442;50.196;8.096;2022-08-11T07:26:48;17.90;59.90
15983;DHT22;14442;50.196;8.096;2022-08-11T07:29:36;18.00;60.00
15983;DHT22;14442;50.196;8.096;2022-08-11T07:32:14;18.00;59.90
15983;DHT22;14442;50.196;8.096;2022-08-11T07:34:47;17.90;59.80
15983;DHT22;14442;50.196;8.096;2022-08-11T07:37:16;18.00;59.90
15983;DHT22;14442;50.196;8.096;2022-08-11T07:39:46;18.00;59.80
15983;DHT22;14442;50.196;8.096;2022-08-11T07:42:16;18.10;59.90
15983;DHT22;14442;50.196;8.096;2022-08-11T07:44:46;18.10;59.80
15983;DHT22;14442;50.196;8.096;2022-08-11T07:47:31;18.10;59.80
15983;DHT22;14442;50.196;8.096;2022-08-11T07:50:17;18.10;59.80
15983;DHT22;14442;50.196;8.096;2022-08-11T07:53:03;18.10;59.80
15983;DHT22;14442;50.196;8.096;2022-08-11T07:55:30;18.20;59.90
15983;DHT22;14442;50.196;8.096;2022-08-11T07:57:59;18.20;59.80
15983;DHT22;14442;50.196;8.096;2022-08-11T08:00:48;18.20;59.80
15983;DHT22;14442;50.196;8.096;2022-08-11T08:03:33;18.20;59.70
15983;DHT22;14442;50.196;8.096;2022-08-11T08:06:18;18.20;59.70
15983;DHT22;14442;50.196;8.096;2022-08-11T08:09:04;18.30;59.80
15983;DHT22;14442;50.196;8.096;2022-08-11T08:11:50;18.20;59.70
15983;DHT22;14442;50.196;8.096;2022-08-11T08:14:35;18.30;59.80
15983;DHT22;14442;50.196;8.096;2022-08-11T08:17:22;18.30;59.80
15983;DHT22;14442;50.196;8.096;2022-08-11T08:20:10;18.20;59.70
15983;DHT22;14442;50.196;8.096;2022-08-11T08:22:38;18.30;59.70
15983;DHT22;14442;50.196;8.096;2022-08-11T08:25:05;18.30;59.70
15983;DHT22;14442;50.196;8.096;2022-08-11T08:27:34;18.30;59.70
15983;DHT22;14442;50.196;8.096;2022-08-11T08:30:01;18.40;59.80
15983;DHT22;14442;50.196;8.096;2022-08-11T08:32:47;18.40;59.80
15983;DHT22;14442;50.196;8.096;2022-08-11T08:35:15;18.40;59.80
15983;DHT22;14442;50.196;8.096;2022-08-11T08:37:42;18.40;59.70
15983;DHT22;14442;50.196;8.096;2022-08-11T08:40:10;18.40;59.60
15983;DHT22;14442;50.196;8.096;2022-08-11T08:42:43;18.50;59.70
15983;DHT22;14442;50.196;8.096;2022-08-11T08:45:12;18.50;59.70
15983;DHT22;14442;50.196;8.096;2022-08-11T08:47:42;18.50;59.70
15983;DHT22;14442;50.196;8.096;2022-08-11T08:50:13;18.50;59.70
15983;DHT22;14442;50.196;8.096;2022-08-11T08:52:46;18.50;59.60
15983;DHT22;14442;50.196;8.096;2022-08-11T08:55:18;18.50;59.70
15983;DHT22;14442;50.196;8.096;2022-08-11T08:57:48;18.50;59.60
15983;DHT22;14442;50.196;8.096;2022-08-11T09:00:16;18.50;59.60
15983;DHT22;14442;50.196;8.096;2022-08-11T09:02:44;18.60;59.70
15983;DHT22;14442;50.196;8.096;2022-08-11T09:05:13;18.60;59.60
15983;DHT22;14442;50.196;8.096;2022-08-11T09:07:42;18.60;59.70
15983;DHT22;14442;50.196;8.096;2022-08-11T09:10:13;18.60;59.60
15983;DHT22;14442;50.196;8.096;2022-08-11T09:12:42;18.60;59.60
15983;DHT22;14442;50.196;8.096;2022-08-11T09:15:11;18.70;59.70
15983;DHT22;14442;50.196;8.096;2022-08-11T09:17:41;18.70;59.60
15983;DHT22;14442;50.196;8.096;2022-08-11T09:20:13;18.70;59.60
15983;DHT22;14442;50.196;8.096;2022-08-11T09:22:43;18.70;59.60
15983;DHT22;14442;50.196;8.096;2022-08-11T09:25:30;18.70;59.60
15983;DHT22;14442;50.196;8.096;2022-08-11T09:28:17;18.80;59.70
15983;DHT22;14442;50.196;8.096;2022-08-11T09:30:47;18.80;59.70
15983;DHT22;14442;50.196;8.096;2022-08-11T09:33:18;18.80;59.60
15983;DHT22;14442;50.196;8.096;2022-08-11T09:35:48;18.80;59.60
15983;DHT22;14442;50.196;8.096;2022-08-11T09:38:18;18.80;60.30
15983;DHT22;14442;50.196;8.096;2022-08-11T09:41:05;18.80;59.60
15983;DHT22;14442;50.196;8.096;2022-08-11T09:43:35;18.80;59.60
15983;DHT22;14442;50.196;8.096;2022-08-11T09:46:24;18.90;59.60
15983;DHT22;14442;50.196;8.096;2022-08-11T09:49:01;18.90;59.60
15983;DHT22;14442;50.196;8.096;2022-08-11T09:51:31;18.90;59.60
15983;DHT22;14442;50.196;8.096;2022-08-11T09:53:59;18.90;59.60
15983;DHT22;14442;50.196;8.096;2022-08-11T09:56:32;18.90;59.60
15983;DHT22;14442;50.196;8.096;2022-08-11T09:59:17;18.90;59.60
15983;DHT22;14442;50.196;8.096;2022-08-11T10:01:48;19.00;59.70
15983;DHT22;14442;50.196;8.096;2022-08-11T10:04:20;18.90;59.60
15983;DHT22;14442;50.196;8.096;2022-08-11T10:06:50;19.00;59.70
15983;DHT22;14442;50.196;8.096;2022-08-11T10:09:36;19.00;59.70
15983;DHT22;14442;50.196;8.096;2022-08-11T10:12:07;19.00;59.70
15983;DHT22;14442;50.196;8.096;2022-08-11T10:14:38;19.00;59.80
15983;DHT22;14442;50.196;8.096;2022-08-11T10:17:24;19.10;60.20
15983;DHT22;14442;50.196;8.096;2022-08-11T10:19:54;19.10;60.20
15983;DHT22;14442;50.196;8.096;2022-08-11T10:22:22;19.20;60.10
15983;DHT22;14442;50.196;8.096;2022-08-11T10:25:07;19.20;60.00
15983;DHT22;14442;50.196;8.096;2022-08-11T10:27:52;19.20;60.00
15983;DHT22;14442;50.196;8.096;2022-08-11T10:30:24;19.20;59.90
15983;DHT22;14442;50.196;8.096;2022-08-11T10:33:10;19.20;59.80
15983;DHT22;14442;50.196;8.096;2022-08-11T10:35:57;19.20;59.80
15983;DHT22;14442;50.196;8.096;2022-08-11T10:38:24;19.20;59.80
15983;DHT22;14442;50.196;8.096;2022-08-11T10:40:53;19.20;59.70
15983;DHT22;14442;50.196;8.096;2022-08-11T10:43:36;19.20;59.70
15983;DHT22;14442;50.196;8.096;2022-08-11T10:46:06;19.30;59.80
15983;DHT22;14442;50.196;8.096;2022-08-11T10:48:53;19.30;59.80
15983;DHT22;14442;50.196;8.096;2022-08-11T10:51:23;19.30;59.80
15983;DHT22;14442;50.196;8.096;2022-08-11T10:54:07;19.30;59.80
15983;DHT22;14442;50.196;8.096;2022-08-11T10:56:53;19.30;59.70
15983;DHT22;14442;50.196;8.096;2022-08-11T10:59:38;19.30;59.70
15983;DHT22;14442;50.196;8.096;2022-08-11T11:02:08;19.30;59.70
15983;DHT22;14442;50.196;8.096;2022-08-11T11:07:30;19.30;59.60
15983;DHT22;14442;50.196;8.096;2022-08-11T11:10:04;19.40;59.70
15983;DHT22;14442;50.196;8.096;2022-08-11T11:12:34;19.40;59.70
15983;DHT22;14442;50.196;8.096;2022-08-11T11:15:22;19.40;59.60
15983;DHT22;14442;50.196;8.096;2022-08-11T11:18:10;19.40;59.60
15983;DHT22;14442;50.196;8.096;2022-08-11T11:20:40;19.40;59.60
15983;DHT22;14442;50.196;8.096;2022-08-11T11:23:13;19.40;59.60
15983;DHT22;14442;50.196;8.096;2022-08-11T11:28:44;19.50;59.70
15983;DHT22;14442;50.196;8.096;2022-08-11T11:31:24;19.40;59.50
15983;DHT22;14442;50.196;8.096;2022-08-11T11:34:08;19.50;59.60
15983;DHT22;14442;50.196;8.096;2022-08-11T11:36:43;19.50;59.60
15983;DHT22;14442;50.196;8.096;2022-08-11T11:39:12;19.50;59.60
15983;DHT22;14442;50.196;8.096;2022-08-11T11:41:40;19.50;59.60
15983;DHT22;14442;50.196;8.096;2022-08-11T11:44:11;19.50;59.60
15983;DHT22;14442;50.196;8.096;2022-08-11T11:46:38;19.50;59.50
15983;DHT22;14442;50.196;8.096;2022-08-11T11:49:06;19.60;59.60
15983;DHT22;14442;50.196;8.096;2022-08-11T11:51:35;19.60;59.60
15983;DHT22;14442;50.196;8.096;2022-08-11T11:54:03;19.60;59.50
15983;DHT22;14442;50.196;8.096;2022-08-11T11:56:32;19.60;59.50
15983;DHT22;14442;50.196;8.096;2022-08-11T11:58:59;19.60;59.40
15983;DHT22;14442;50.196;8.096;2022-08-11T12:01:44;19.60;59.40
15983;DHT22;14442;50.196;8.096;2022-08-11T12:04:13;19.70;59.40
15983;DHT22;14442;50.196;8.096;2022-08-11T12:06:41;19.70;59.50
15983;DHT22;14442;50.196;8.096;2022-08-11T12:09:10;19.70;59.40
15983;DHT22;14442;50.196;8.096;2022-08-11T12:11:41;19.70;59.30
15983;DHT22;14442;50.196;8.096;2022-08-11T12:14:26;19.70;59.30
15983;DHT22;14442;50.196;8.096;2022-08-11T12:16:55;19.80;59.40
15983;DHT22;14442;50.196;8.096;2022-08-11T12:19:24;19.80;59.40
15983;DHT22;14442;50.196;8.096;2022-08-11T12:21:54;19.80;59.40
15983;DHT22;14442;50.196;8.096;2022-08-11T12:24:40;19.80;59.40
15983;DHT22;14442;50.196;8.096;2022-08-11T12:27:27;19.90;59.50
15983;DHT22;14442;50.196;8.096;2022-08-11T12:29:57;19.90;59.60
15983;DHT22;14442;50.196;8.096;2022-08-11T12:32:28;19.90;59.50
15983;DHT22;14442;50.196;8.096;2022-08-11T12:34:56;19.90;59.40
15983;DHT22;14442;50.196;8.096;2022-08-11T12:37:27;19.90;59.40
15983;DHT22;14442;50.196;8.096;2022-08-11T12:39:58;20.00;59.40
15983;DHT22;14442;50.196;8.096;2022-08-11T12:42:46;20.00;59.30
15983;DHT22;14442;50.196;8.096;2022-08-11T12:45:31;20.00;59.30
15983;DHT22;14442;50.196;8.096;2022-08-11T12:48:06;20.10;59.40
15983;DHT22;14442;50.196;8.096;2022-08-11T12:50:55;20.10;59.40
15983;DHT22;14442;50.196;8.096;2022-08-11T12:53:44;20.10;59.30
15983;DHT22;14442;50.196;8.096;2022-08-11T12:56:12;20.20;60.00
15983;DHT22;14442;50.196;8.096;2022-08-11T12:58:58;20.20;59.40
15983;DHT22;14442;50.196;8.096;2022-08-11T13:01:44;20.20;59.30
15983;DHT22;14442;50.196;8.096;2022-08-11T13:04:29;20.20;59.30
15983;DHT22;14442;50.196;8.096;2022-08-11T13:07:14;20.20;59.20
15983;DHT22;14442;50.196;8.096;2022-08-11T13:09:43;20.30;59.30
15983;DHT22;14442;50.196;8.096;2022-08-11T13:12:11;20.30;59.30
15983;DHT22;14442;50.196;8.096;2022-08-11T13:14:58;20.40;59.30
15983;DHT22;14442;50.196;8.096;2022-08-11T13:17:25;20.40;59.20
15983;DHT22;14442;50.196;8.096;2022-08-11T13:19:54;20.40;59.20
15983;DHT22;14442;50.196;8.096;2022-08-11T13:22:23;20.40;59.10
15983;DHT22;14442;50.196;8.096;2022-08-11T13:24:51;20.50;59.20
15983;DHT22;14442;50.196;8.096;2022-08-11T13:27:20;20.50;59.10
15983;DHT22;14442;50.196;8.096;2022-08-11T13:29:48;20.50;59.10
15983;DHT22;14442;50.196;8.096;2022-08-11T13:32:20;20.60;59.20
15983;DHT22;14442;50.196;8.096;2022-08-11T13:34:50;20.60;59.10
15983;DHT22;14442;50.196;8.096;2022-08-11T13:37:19;20.60;59.10
15983;DHT22;14442;50.196;8.096;2022-08-11T13:39:47;20.60;59.10
15983;DHT22;14442;50.196;8.096;2022-08-11T13:42:14;20.70;59.10
15983;DHT22;14442;50.196;8.096;2022-08-11T13:44:45;20.70;59.10
15983;DHT22;14442;50.196;8.096;2022-08-11T13:47:12;20.70;59.00
15983;DHT22;14442;50.196;8.096;2022-08-11T13:49:41;20.70;59.00
15983;DHT22;14442;50.196;8.096;2022-08-11T13:52:11;20.70;59.60
15983;DHT22;14442;50.196;8.096;2022-08-11T13:54:40;20.80;59.10
15983;DHT22;14442;50.196;8.096;2022-08-11T13:57:10;20.80;59.00
15983;DHT22;14442;50.196;8.096;2022-08-11T13:59:37;20.80;58.90
15983;DHT22;14442;50.196;8.096;2022-08-11T14:02:07;20.80;58.90
15983;DHT22;14442;50.196;8.096;2022-08-11T14:04:41;20.80;58.90
15983;DHT22;14442;50.196;8.096;2022-08-11T14:07:10;20.90;58.90
15983;DHT22;14442;50.196;8.096;2022-08-11T14:09:41;20.90;58.90
15983;DHT22;14442;50.196;8.096;2022-08-11T14:12:14;20.90;58.90
15983;DHT22;14442;50.196;8.096;2022-08-11T14:15:02;20.90;58.90
15983;DHT22;14442;50.196;8.096;2022-08-11T14:17:32;20.90;58.80
15983;DHT22;14442;50.196;8.096;2022-08-11T14:20:05;21.00;58.80
15983;DHT22;14442;50.196;8.096;2022-08-11T14:22:34;21.00;58.80
15983;DHT22;14442;50.196;8.096;2022-08-11T14:25:03;21.00;58.80
15983;DHT22;14442;50.196;8.096;2022-08-11T14:27:31;21.00;58.80
15983;DHT22;14442;50.196;8.096;2022-08-11T14:29:58;21.00;58.90
15983;DHT22;14442;50.196;8.096;2022-08-11T14:32:25;21.00;58.80
15983;DHT22;14442;50.196;8.096;2022-08-11T14:34:52;21.10;58.90
15983;DHT22;14442;50.196;8.096;2022-08-11T14:37:21;21.10;58.90
15983;DHT22;14442;50.196;8.096;2022-08-11T14:39:51;21.10;58.80
15983;DHT22;14442;50.196;8.096;2022-08-11T14:42:20;21.10;58.80
15983;DHT22;14442;50.196;8.096;2022-08-11T14:45:06;21.10;59.30
15983;DHT22;14442;50.196;8.096;2022-08-11T14:47:56;21.10;58.80
15983;DHT22;14442;50.196;8.096;2022-08-11T14:50:27;21.10;58.80
15983;DHT22;14442;50.196;8.096;2022-08-11T14:52:59;21.10;58.70
15983;DHT22;14442;50.196;8.096;2022-08-11T14:55:27;21.20;58.80
15983;DHT22;14442;50.196;8.096;2022-08-11T14:58:16;21.20;58.70
15983;DHT22;14442;50.196;8.096;2022-08-11T15:00:44;21.20;58.70
15983;DHT22;14442;50.196;8.096;2022-08-11T15:03:13;21.20;58.70
15983;DHT22;14442;50.196;8.096;2022-08-11T15:05:43;21.20;58.70
15983;DHT22;14442;50.196;8.096;2022-08-11T15:08:14;21.30;58.70
15983;DHT22;14442;50.196;8.096;2022-08-11T15:10:42;21.30;58.70
15983;DHT22;14442;50.196;8.096;2022-08-11T15:13:09;21.30;58.70
15983;DHT22;14442;50.196;8.096;2022-08-11T15:15:38;21.30;58.70
15983;DHT22;14442;50.196;8.096;2022-08-11T15:18:23;21.30;58.70
15983;DHT22;14442;50.196;8.096;2022-08-11T15:20:51;21.30;58.70
15983;DHT22;14442;50.196;8.096;2022-08-11T15:23:39;21.30;58.70
15983;DHT22;14442;50.196;8.096;2022-08-11T15:26:28;21.30;58.70
15983;DHT22;14442;50.196;8.096;2022-08-11T15:29:19;21.30;58.80
15983;DHT22;14442;50.196;8.096;2022-08-11T15:32:17;21.30;58.80
15983;DHT22;14442;50.196;8.096;2022-08-11T15:35:02;21.30;58.90
15983;DHT22;14442;50.196;8.096;2022-08-11T15:37:52;21.30;59.00
15983;DHT22;14442;50.196;8.096;2022-08-11T15:40:26;21.30;58.80
15983;DHT22;14442;50.196;8.096;2022-08-11T15:43:15;21.30;58.80
15983;DHT22;14442;50.196;8.096;2022-08-11T15:46:07;21.30;58.80
15983;DHT22;14442;50.196;8.096;2022-08-11T15:48:40;21.30;59.00
15983;DHT22;14442;50.196;8.096;2022-08-11T15:51:10;21.30;58.90
15983;DHT22;14442;50.196;8.096;2022-08-11T15:53:40;21.30;58.80
15983;DHT22;14442;50.196;8.096;2022-08-11T15:56:10;21.30;58.70
15983;DHT22;14442;50.196;8.096;2022-08-11T15:58:41;21.30;58.70
15983;DHT22;14442;50.196;8.096;2022-08-11T16:01:27;21.30;58.90
15983;DHT22;14442;50.196;8.096;2022-08-11T16:04:15;21.30;58.90
15983;DHT22;14442;50.196;8.096;2022-08-11T16:06:48;21.30;58.80
15983;DHT22;14442;50.196;8.096;2022-08-11T16:09:19;21.30;59.50
15983;DHT22;14442;50.196;8.096;2022-08-11T16:11:47;21.30;58.90
15983;DHT22;14442;50.196;8.096;2022-08-11T16:14:15;21.20;58.80
15983;DHT22;14442;50.196;8.096;2022-08-11T16:17:01;21.20;58.80
15983;DHT22;14442;50.196;8.096;2022-08-11T16:19:29;21.20;58.80
15983;DHT22;14442;50.196;8.096;2022-08-11T16:22:01;21.20;58.90
15983;DHT22;14442;50.196;8.096;2022-08-11T16:24:30;21.20;58.90
15983;DHT22;14442;50.196;8.096;2022-08-11T16:26:58;21.20;58.90
15983;DHT22;14442;50.196;8.096;2022-08-11T16:29:29;21.20;58.90
15983;DHT22;14442;50.196;8.096;2022-08-11T16:31:57;21.20;58.90
15983;DHT22;14442;50.196;8.096;2022-08-11T16:34:45;21.20;58.90
15983;DHT22;14442;50.196;8.096;2022-08-11T16:37:33;21.20;59.00
15983;DHT22;14442;50.196;8.096;2022-08-11T16:40:19;21.20;58.90
15983;DHT22;14442;50.196;8.096;2022-08-11T16:42:49;21.20;58.90
15983;DHT22;14442;50.196;8.096;2022-08-11T16:45:35;21.20;58.90
15983;DHT22;14442;50.196;8.096;2022-08-11T16:48:22;21.20;58.90
15983;DHT22;14442;50.196;8.096;2022-08-11T16:50:49;21.10;58.80
15983;DHT22;14442;50.196;8.096;2022-08-11T16:53:16;21.10;58.90
15983;DHT22;14442;50.196;8.096;2022-08-11T16:55:44;21.10;58.90
15983;DHT22;14442;50.196;8.096;2022-08-11T16:58:14;21.10;58.90
15983;DHT22;14442;50.196;8.096;2022-08-11T17:01:00;21.10;58.90
15983;DHT22;14442;50.196;8.096;2022-08-11T17:03:29;21.10;58.90
15983;DHT22;14442;50.196;8.096;2022-08-11T17:06:16;21.10;58.90